createdAt,value
2023-09-17T00:01:16.112Z,15.14
2023-09-17T00:03:52.671Z,15.15
2023-09-17T00:06:20.385Z,15.19
2023-09-17T00:08:47.312Z,15.19
2023-09-17T00:11:15.004Z,15.20
2023-09-17T00:13:42.318Z,15.19
2023-09-17T00:16:09.299Z,15.17
2023-09-17T00:18:36.474Z,15.16
2023-09-17T00:21:05.669Z,15.14
2023-09-17T00:23:32.704Z,15.09
2023-09-17T00:25:59.487Z,15.08
2023-09-17T00:28:26.713Z,15.08
2023-09-17T00:30:54.826Z,15.09
2023-09-17T00:33:21.623Z,15.04
2023-09-17T00:35:48.864Z,14.97
2023-09-17T00:38:15.629Z,14.93
2023-09-17T00:40:42.282Z,14.91
2023-09-17T00:43:09.753Z,14.86
2023-09-17T00:45:36.822Z,14.87
2023-09-17T00:48:05.420Z,14.78
2023-09-17T00:50:33.326Z,14.76
2023-09-17T00:53:01.134Z,14.75
2023-09-17T00:55:30.183Z,14.72
2023-09-17T00:57:59.072Z,14.68
2023-09-17T01:00:26.907Z,14.68
2023-09-17T01:02:55.032Z,14.66
2023-09-17T01:05:22.319Z,14.65
2023-09-17T01:07:50.329Z,14.65
2023-09-17T01:10:18.180Z,14.55
2023-09-17T01:12:45.070Z,14.50
2023-09-17T01:15:11.925Z,14.43
2023-09-17T01:17:38.720Z,14.41
2023-09-17T01:20:26.487Z,14.43
2023-09-17T01:23:09.101Z,14.43
2023-09-17T01:25:47.074Z,14.41
2023-09-17T01:28:14.406Z,14.39
2023-09-17T01:30:42.289Z,14.38
2023-09-17T01:33:12.778Z,14.34
2023-09-17T01:36:06.221Z,14.35
2023-09-17T01:38:40.582Z,14.27
2023-09-17T01:41:08.512Z,14.25
2023-09-17T01:43:38.639Z,14.24
2023-09-17T01:46:06.460Z,14.22
2023-09-17T01:48:33.649Z,14.19
2023-09-17T01:51:01.363Z,14.17
2023-09-17T01:53:28.900Z,14.19
2023-09-17T01:55:57.039Z,14.16
2023-09-17T01:58:24.272Z,14.15
2023-09-17T02:00:53.204Z,14.16
2023-09-17T02:03:20.705Z,14.15
2023-09-17T02:05:48.007Z,14.13
2023-09-17T02:08:14.739Z,14.19
2023-09-17T02:10:41.538Z,14.18
2023-09-17T02:13:08.715Z,14.14
2023-09-17T02:15:35.408Z,14.13
2023-09-17T02:18:02.407Z,14.12
2023-09-17T02:20:29.481Z,14.09
2023-09-17T02:22:56.318Z,14.03
2023-09-17T02:25:23.387Z,14.00
2023-09-17T02:27:50.642Z,14.02
2023-09-17T02:30:17.240Z,14.01
2023-09-17T02:32:44.670Z,14.00
2023-09-17T02:35:11.909Z,14.01
2023-09-17T02:37:39.473Z,14.01
2023-09-17T02:40:09.448Z,14.03
2023-09-17T02:42:37.581Z,14.02
2023-09-17T02:45:06.503Z,14.01
2023-09-17T02:47:36.293Z,13.98
2023-09-17T02:50:03.701Z,14.03
2023-09-17T02:52:30.901Z,14.01
2023-09-17T02:54:57.677Z,14.02
2023-09-17T02:57:24.361Z,14.01
2023-09-17T02:59:52.373Z,14.08
2023-09-17T03:02:20.481Z,14.02
2023-09-17T03:04:47.379Z,13.99
2023-09-17T03:07:15.651Z,14.02
2023-09-17T03:09:43.184Z,13.97
2023-09-17T03:12:11.399Z,13.97
2023-09-17T03:14:39.427Z,13.96
2023-09-17T03:17:07.112Z,13.89
2023-09-17T03:19:34.198Z,13.83
2023-09-17T03:22:03.149Z,13.82
2023-09-17T03:24:29.876Z,13.85
2023-09-17T03:26:57.099Z,13.84
2023-09-17T03:29:25.039Z,13.88
2023-09-17T03:31:52.923Z,13.89
2023-09-17T03:34:20.190Z,13.88
2023-09-17T03:36:47.358Z,13.90
2023-09-17T03:39:14.022Z,13.97
2023-09-17T03:41:41.402Z,13.98
2023-09-17T03:44:10.473Z,14.00
2023-09-17T03:46:38.359Z,14.07
2023-09-17T03:49:05.165Z,14.10
2023-09-17T03:51:32.446Z,14.13
2023-09-17T03:54:00.361Z,14.17
2023-09-17T03:56:27.710Z,14.19
2023-09-17T03:58:54.960Z,14.22
2023-09-17T04:01:22.957Z,14.26
2023-09-17T04:03:50.668Z,14.32
2023-09-17T04:06:18.994Z,14.33
2023-09-17T04:08:45.815Z,14.37
2023-09-17T04:11:16.391Z,14.46
2023-09-17T04:13:43.663Z,14.55
2023-09-17T04:16:11.176Z,14.63
2023-09-17T04:18:37.995Z,14.66
2023-09-17T04:21:04.877Z,14.65
2023-09-17T04:23:31.685Z,14.65
2023-09-17T04:25:58.369Z,14.73
2023-09-17T04:28:25.357Z,14.77
2023-09-17T04:30:52.068Z,14.81
2023-09-17T04:33:20.204Z,14.82
2023-09-17T04:35:47.003Z,14.89
2023-09-17T04:38:13.755Z,14.94
2023-09-17T04:40:41.496Z,15.05
2023-09-17T04:43:09.980Z,15.09
2023-09-17T04:45:39.554Z,15.13
2023-09-17T04:48:29.582Z,15.25
2023-09-17T04:50:56.785Z,15.33
2023-09-17T04:53:23.537Z,15.41
2023-09-17T04:55:50.405Z,15.46
2023-09-17T04:58:20.424Z,15.56
2023-09-17T05:00:48.280Z,15.67
2023-09-17T05:03:15.821Z,15.72
2023-09-17T05:05:43.074Z,15.86
2023-09-17T05:08:09.701Z,16.00
2023-09-17T05:10:36.695Z,16.10
2023-09-17T05:13:04.322Z,16.22
2023-09-17T05:15:30.967Z,16.28
2023-09-17T05:17:57.983Z,16.37
2023-09-17T05:20:24.942Z,16.47
2023-09-17T05:22:51.868Z,16.54
2023-09-17T05:25:18.977Z,16.61
2023-09-17T05:27:46.073Z,16.68
2023-09-17T05:30:13.954Z,16.74
2023-09-17T05:32:40.705Z,16.77
2023-09-17T05:35:08.450Z,16.84
2023-09-17T05:37:35.567Z,16.95
2023-09-17T05:40:04.244Z,17.05
2023-09-17T05:42:31.812Z,17.12
2023-09-17T05:44:58.743Z,17.15
2023-09-17T05:47:25.429Z,17.18
2023-09-17T05:49:52.263Z,17.24
2023-09-17T05:52:19.003Z,17.27
2023-09-17T05:54:46.006Z,17.29
2023-09-17T05:57:12.709Z,17.31
2023-09-17T05:59:39.594Z,17.37
2023-09-17T06:02:09.915Z,17.42
2023-09-17T06:04:36.652Z,17.50
2023-09-17T06:07:04.227Z,17.58
2023-09-17T06:09:31.985Z,17.66
2023-09-17T06:11:58.635Z,17.76
2023-09-17T06:14:25.584Z,17.81
2023-09-17T06:16:57.914Z,17.87
2023-09-17T06:19:27.617Z,17.99
2023-09-17T06:21:55.038Z,18.09
2023-09-17T06:24:22.139Z,18.13
2023-09-17T06:26:48.760Z,18.13
2023-09-17T06:29:16.366Z,18.17
2023-09-17T06:31:43.797Z,18.25
2023-09-17T06:34:11.249Z,18.34
2023-09-17T06:36:37.870Z,18.45
2023-09-17T06:39:07.054Z,18.58
2023-09-17T06:41:36.817Z,18.71
2023-09-17T06:44:05.349Z,18.80
2023-09-17T06:46:32.771Z,18.95
2023-09-17T06:48:59.848Z,19.06
2023-09-17T06:51:26.726Z,19.15
2023-09-17T06:53:53.751Z,19.25
2023-09-17T06:56:24.158Z,19.36
2023-09-17T06:58:51.202Z,19.51
2023-09-17T07:01:19.468Z,19.67
2023-09-17T07:03:46.450Z,19.84
2023-09-17T07:06:13.791Z,19.92
2023-09-17T07:08:40.443Z,19.97
2023-09-17T07:11:07.203Z,20.07
2023-09-17T07:13:34.538Z,20.32
2023-09-17T07:16:01.699Z,20.88
2023-09-17T07:18:30.868Z,21.29
2023-09-17T07:20:57.982Z,21.68
2023-09-17T07:23:26.014Z,21.94
2023-09-17T07:25:52.778Z,22.66
2023-09-17T07:28:20.589Z,24.24
2023-09-17T07:30:47.208Z,25.15
2023-09-17T07:33:13.861Z,25.54
2023-09-17T07:35:40.530Z,25.42
2023-09-17T07:38:07.138Z,25.08
2023-09-17T07:40:34.051Z,24.88
2023-09-17T07:43:01.880Z,24.72
2023-09-17T07:45:28.516Z,24.85
2023-09-17T07:47:55.157Z,25.89
2023-09-17T07:50:22.042Z,27.97
2023-09-17T07:52:48.865Z,29.87
2023-09-17T07:55:17.263Z,30.99
2023-09-17T07:57:44.060Z,32.03
2023-09-17T08:00:12.878Z,32.60
2023-09-17T08:02:39.935Z,33.31
2023-09-17T08:05:07.860Z,34.07
2023-09-17T08:07:36.834Z,34.15
2023-09-17T08:10:04.232Z,33.54
2023-09-17T08:12:33.482Z,33.40
2023-09-17T08:15:00.256Z,34.38
2023-09-17T08:17:27.448Z,34.94
2023-09-17T08:19:54.839Z,34.82
2023-09-17T08:22:22.896Z,34.57
2023-09-17T08:24:49.666Z,34.46
2023-09-17T08:27:17.570Z,34.70
2023-09-17T08:29:44.406Z,35.45
2023-09-17T08:32:11.713Z,36.36
2023-09-17T08:34:38.506Z,36.91
2023-09-17T08:37:05.411Z,36.98
2023-09-17T08:39:32.040Z,37.46
2023-09-17T08:42:00.474Z,37.41
2023-09-17T08:44:28.397Z,37.48
2023-09-17T08:46:57.159Z,37.50
2023-09-17T08:49:24.233Z,37.22
2023-09-17T08:51:55.913Z,36.29
2023-09-17T08:54:26.377Z,36.86
2023-09-17T08:56:57.311Z,36.18
2023-09-17T08:59:28.751Z,34.68
2023-09-17T09:01:57.786Z,34.04
2023-09-17T09:04:26.051Z,33.34
2023-09-17T09:06:55.108Z,34.93
2023-09-17T09:09:24.327Z,35.68
2023-09-17T09:11:51.488Z,36.89
2023-09-17T09:14:18.219Z,37.65
2023-09-17T09:16:45.477Z,37.50
2023-09-17T09:19:12.697Z,37.82
2023-09-17T09:21:40.321Z,38.64
2023-09-17T09:24:08.629Z,39.12
2023-09-17T09:26:37.794Z,39.88
2023-09-17T09:29:05.778Z,39.80
2023-09-17T09:31:34.267Z,40.37
2023-09-17T09:34:03.391Z,40.10
2023-09-17T09:36:33.617Z,39.53
2023-09-17T09:39:01.701Z,39.75
2023-09-17T09:41:30.096Z,39.53
2023-09-17T09:43:57.466Z,40.60
2023-09-17T09:46:25.464Z,40.82
2023-09-17T09:48:52.780Z,38.68
2023-09-17T09:51:21.622Z,36.92
2023-09-17T09:53:49.213Z,35.83
2023-09-17T09:56:16.357Z,35.61
2023-09-17T09:58:44.918Z,35.13
2023-09-17T10:01:15.311Z,34.45
2023-09-17T10:03:42.508Z,34.37
2023-09-17T10:06:10.514Z,33.52
2023-09-17T10:08:40.011Z,33.14
2023-09-17T10:11:10.051Z,33.84
2023-09-17T10:13:38.073Z,35.55
2023-09-17T10:16:06.418Z,37.36
2023-09-17T10:18:35.932Z,38.01
2023-09-17T10:21:03.192Z,38.26
2023-09-17T10:23:31.826Z,39.37
2023-09-17T10:26:00.137Z,39.86
2023-09-17T10:28:28.333Z,40.63
2023-09-17T10:30:57.240Z,40.89
2023-09-17T10:33:27.821Z,41.44
2023-09-17T10:35:57.748Z,42.03
2023-09-17T10:38:27.406Z,42.26
2023-09-17T10:40:56.995Z,41.76
2023-09-17T10:43:26.025Z,42.15
2023-09-17T10:45:57.276Z,42.22
2023-09-17T10:48:27.705Z,42.22
2023-09-17T10:50:58.419Z,41.44
2023-09-17T10:53:27.281Z,39.98
2023-09-17T10:56:08.658Z,39.46
2023-09-17T10:58:39.466Z,38.97
2023-09-17T11:01:09.251Z,37.33
2023-09-17T11:03:40.611Z,36.49
2023-09-17T11:06:17.456Z,35.36
2023-09-17T11:08:46.119Z,34.91
2023-09-17T11:11:15.489Z,33.78
2023-09-17T11:13:49.401Z,33.13
2023-09-17T11:16:16.474Z,32.53
2023-09-17T11:19:19.219Z,31.67
2023-09-17T11:22:01.040Z,31.24
2023-09-17T11:24:28.445Z,30.84
2023-09-17T11:27:01.766Z,30.82
2023-09-17T11:29:41.997Z,30.33
2023-09-17T11:32:09.739Z,30.13
2023-09-17T11:34:41.172Z,30.08
2023-09-17T11:37:08.112Z,30.05
2023-09-17T11:39:36.937Z,29.89
2023-09-17T11:42:14.189Z,29.51
2023-09-17T11:44:44.313Z,29.46
2023-09-17T11:47:13.432Z,29.51
2023-09-17T11:49:40.884Z,29.52
2023-09-17T11:52:12.545Z,29.38
2023-09-17T11:54:51.441Z,29.04
2023-09-17T11:57:25.974Z,28.89
2023-09-17T11:59:54.676Z,28.90
2023-09-17T12:02:21.549Z,28.92
2023-09-17T12:04:49.838Z,29.06
2023-09-17T12:07:16.924Z,29.15
2023-09-17T12:10:05.805Z,29.40
2023-09-17T12:12:35.236Z,29.53
2023-09-17T12:15:05.523Z,29.19
2023-09-17T12:17:43.408Z,29.84
2023-09-17T12:20:57.767Z,31.73
2023-09-17T12:24:07.278Z,33.30
2023-09-17T12:26:59.435Z,32.80
2023-09-17T12:29:29.375Z,32.76
2023-09-17T12:31:56.650Z,32.94
2023-09-17T12:34:23.401Z,33.65
2023-09-17T12:36:50.115Z,33.53
2023-09-17T12:39:16.862Z,33.64
2023-09-17T12:41:44.187Z,34.15
2023-09-17T12:44:12.958Z,33.43
2023-09-17T12:46:40.211Z,32.77
2023-09-17T12:49:08.099Z,32.08
2023-09-17T12:51:38.269Z,31.10
2023-09-17T12:54:06.558Z,30.91
2023-09-17T12:56:33.905Z,30.10
2023-09-17T12:59:01.426Z,30.25
2023-09-17T13:01:34.461Z,31.85
2023-09-17T13:04:07.250Z,33.18
2023-09-17T13:06:35.877Z,34.47
2023-09-17T13:09:03.411Z,35.39
2023-09-17T13:11:30.856Z,35.89
2023-09-17T13:13:58.893Z,34.81
2023-09-17T13:16:26.365Z,33.14
2023-09-17T13:18:53.354Z,31.95
2023-09-17T13:21:20.906Z,31.70
2023-09-17T13:23:49.332Z,30.98
2023-09-17T13:26:16.672Z,30.54
2023-09-17T13:28:43.698Z,30.10
2023-09-17T13:31:11.507Z,29.60
2023-09-17T13:33:39.377Z,29.48
2023-09-17T13:36:10.368Z,29.62
2023-09-17T13:38:42.175Z,29.56
2023-09-17T13:41:08.869Z,29.24
2023-09-17T13:43:35.940Z,29.24
2023-09-17T13:46:03.242Z,28.97
2023-09-17T13:48:31.097Z,28.86
2023-09-17T13:50:57.711Z,28.75
2023-09-17T13:53:24.512Z,28.50
2023-09-17T13:55:51.284Z,28.17
2023-09-17T13:58:18.601Z,27.98
2023-09-17T14:00:45.475Z,27.75
2023-09-17T14:03:16.530Z,27.66
2023-09-17T14:05:44.450Z,27.55
2023-09-17T14:08:11.885Z,27.42
2023-09-17T14:10:39.656Z,27.24
2023-09-17T14:13:06.518Z,26.94
2023-09-17T14:15:34.975Z,26.62
2023-09-17T14:18:02.477Z,26.53
2023-09-17T14:20:30.076Z,26.46
2023-09-17T14:22:57.062Z,26.43
2023-09-17T14:25:24.131Z,26.27
2023-09-17T14:27:51.024Z,26.18
2023-09-17T14:30:22.344Z,26.27
2023-09-17T14:32:51.841Z,26.30
2023-09-17T14:35:18.994Z,26.27
2023-09-17T14:37:47.894Z,26.30
2023-09-17T14:40:16.344Z,26.22
2023-09-17T14:42:43.632Z,26.07
2023-09-17T14:45:10.567Z,26.04
2023-09-17T14:47:39.501Z,26.06
2023-09-17T14:50:08.889Z,26.01
2023-09-17T14:52:36.584Z,25.93
2023-09-17T14:55:05.208Z,25.81
2023-09-17T14:57:34.448Z,25.76
2023-09-17T15:00:01.156Z,25.67
2023-09-17T15:02:28.916Z,25.57
2023-09-17T15:04:56.567Z,25.55
2023-09-17T15:07:23.823Z,25.41
2023-09-17T15:09:51.320Z,25.31
2023-09-17T15:12:18.136Z,25.27
2023-09-17T15:14:44.930Z,25.12
2023-09-17T15:17:11.742Z,24.99
2023-09-17T15:19:38.667Z,24.98
2023-09-17T15:22:06.320Z,24.95
2023-09-17T15:24:33.300Z,24.92
2023-09-17T15:27:00.839Z,24.90
2023-09-17T15:29:29.911Z,24.77
2023-09-17T15:31:56.808Z,24.66
2023-09-17T15:34:24.824Z,24.62
2023-09-17T15:36:52.512Z,24.53
2023-09-17T15:39:19.653Z,24.48
2023-09-17T15:41:46.351Z,24.41
2023-09-17T15:44:16.020Z,24.37
2023-09-17T15:46:43.767Z,24.31
2023-09-17T15:49:10.592Z,24.29
2023-09-17T15:51:37.516Z,24.27
2023-09-17T15:54:04.849Z,24.27
2023-09-17T15:56:31.689Z,24.23
2023-09-17T15:58:58.592Z,24.13
2023-09-17T16:01:25.396Z,24.12
2023-09-17T16:03:52.187Z,24.02
2023-09-17T16:06:23.601Z,23.95
2023-09-17T16:08:53.683Z,23.97
2023-09-17T16:11:20.952Z,23.81
2023-09-17T16:13:47.674Z,23.73
2023-09-17T16:16:14.870Z,23.60
2023-09-17T16:18:42.518Z,23.40
2023-09-17T16:21:11.569Z,23.18
2023-09-17T16:23:38.417Z,22.98
2023-09-17T16:26:05.142Z,22.88
2023-09-17T16:28:31.848Z,22.72
2023-09-17T16:30:58.484Z,22.51
2023-09-17T16:33:25.352Z,22.44
2023-09-17T16:35:52.071Z,22.33
2023-09-17T16:38:20.248Z,22.25
2023-09-17T16:40:47.743Z,22.18
2023-09-17T16:43:16.051Z,22.06
2023-09-17T16:45:44.138Z,21.91
2023-09-17T16:48:11.448Z,21.81
2023-09-17T16:50:38.142Z,21.69
2023-09-17T16:53:04.998Z,21.59
2023-09-17T16:55:31.808Z,21.48
2023-09-17T16:57:58.437Z,21.37
2023-09-17T17:00:25.472Z,21.23
2023-09-17T17:02:52.691Z,21.17
2023-09-17T17:05:20.034Z,21.10
2023-09-17T17:07:46.915Z,21.03
2023-09-17T17:10:15.550Z,20.94
2023-09-17T17:12:42.412Z,20.87
2023-09-17T17:15:09.231Z,20.79
2023-09-17T17:17:36.433Z,20.72
2023-09-17T17:20:04.329Z,20.64
2023-09-17T17:22:42.738Z,20.49
2023-09-17T17:25:10.038Z,20.37
2023-09-17T17:27:36.732Z,20.28
2023-09-17T17:30:10.006Z,20.33
2023-09-17T17:32:45.442Z,20.37
2023-09-17T17:35:14.210Z,20.33
2023-09-17T17:37:42.332Z,20.28
2023-09-17T17:40:09.577Z,20.24
2023-09-17T17:42:36.493Z,20.18
2023-09-17T17:45:03.964Z,20.15
2023-09-17T17:47:34.533Z,20.05
2023-09-17T17:50:01.418Z,19.87
2023-09-17T17:52:28.264Z,19.80
2023-09-17T17:54:55.027Z,19.72
2023-09-17T17:57:23.562Z,19.67
2023-09-17T17:59:55.614Z,19.62
2023-09-17T18:02:22.504Z,19.60
2023-09-17T18:04:49.271Z,19.58
2023-09-17T18:07:16.617Z,19.55
2023-09-17T18:09:45.050Z,19.50
2023-09-17T18:12:11.984Z,19.45
2023-09-17T18:14:38.755Z,19.40
2023-09-17T18:17:05.644Z,19.35
2023-09-17T18:19:32.519Z,19.33
2023-09-17T18:22:01.298Z,19.31
2023-09-17T18:24:29.267Z,19.22
2023-09-17T18:26:56.334Z,19.21
2023-09-17T18:29:27.800Z,19.13
2023-09-17T18:31:56.572Z,19.10
2023-09-17T18:34:24.437Z,19.05
2023-09-17T18:36:51.185Z,19.01
2023-09-17T18:39:19.701Z,18.97
2023-09-17T18:41:47.442Z,18.90
2023-09-17T18:44:15.067Z,18.85
2023-09-17T18:46:41.824Z,18.69
2023-09-17T18:49:10.943Z,18.65
2023-09-17T18:51:38.828Z,18.62
2023-09-17T18:54:05.621Z,18.64
2023-09-17T18:56:35.460Z,18.62
2023-09-17T18:59:02.816Z,18.60
2023-09-17T19:01:30.229Z,18.63
2023-09-17T19:03:57.171Z,18.66
2023-09-17T19:06:24.836Z,18.53
2023-09-17T19:08:51.920Z,18.46
2023-09-17T19:11:19.761Z,18.43
2023-09-17T19:13:49.384Z,18.37
2023-09-17T19:16:16.647Z,18.27
2023-09-17T19:18:43.920Z,18.16
2023-09-17T19:21:14.697Z,18.17
2023-09-17T19:23:42.869Z,18.15
2023-09-17T19:26:11.440Z,18.08
2023-09-17T19:28:39.416Z,18.05
2023-09-17T19:31:06.424Z,18.02
2023-09-17T19:33:33.830Z,17.91
2023-09-17T19:36:01.059Z,17.86
2023-09-17T19:38:31.223Z,17.83
2023-09-17T19:40:58.279Z,17.80
2023-09-17T19:43:25.197Z,17.73
2023-09-17T19:45:56.456Z,17.66
2023-09-17T19:48:24.474Z,17.69
2023-09-17T19:50:51.361Z,17.68
2023-09-17T19:53:20.860Z,17.66
2023-09-17T19:55:47.773Z,17.66
2023-09-17T19:58:15.225Z,17.67
2023-09-17T20:00:42.149Z,17.65
2023-09-17T20:03:08.967Z,17.59
2023-09-17T20:05:36.704Z,17.60
2023-09-17T20:08:08.042Z,17.59
2023-09-17T20:10:37.403Z,17.56
2023-09-17T20:13:04.763Z,17.52
2023-09-17T20:15:34.005Z,17.56
2023-09-17T20:18:00.628Z,17.58
2023-09-17T20:20:28.913Z,17.52
2023-09-17T20:22:55.854Z,17.45
2023-09-17T20:25:22.590Z,17.39
2023-09-17T20:27:58.009Z,17.41
2023-09-17T20:30:26.879Z,17.35
2023-09-17T20:32:55.565Z,17.24
2023-09-17T20:35:22.678Z,17.20
2023-09-17T20:37:49.869Z,17.15
2023-09-17T20:40:16.985Z,17.17
2023-09-17T20:42:44.021Z,17.17
2023-09-17T20:45:11.204Z,17.15
2023-09-17T20:47:39.075Z,17.13
2023-09-17T20:50:08.222Z,17.11
2023-09-17T20:52:35.129Z,17.09
2023-09-17T20:55:02.782Z,17.04
2023-09-17T20:57:30.172Z,17.03
2023-09-17T20:59:57.469Z,17.02
2023-09-17T21:02:24.852Z,16.95
2023-09-17T21:04:57.258Z,16.90
2023-09-17T21:07:25.816Z,16.95
2023-09-17T21:09:56.964Z,16.91
2023-09-17T21:12:23.890Z,16.89
2023-09-17T21:14:51.140Z,16.86
2023-09-17T21:17:17.839Z,16.84
2023-09-17T21:19:44.431Z,16.83
2023-09-17T21:22:11.761Z,16.77
2023-09-17T21:24:38.966Z,16.70
2023-09-17T21:27:05.701Z,16.62
2023-09-17T21:29:36.557Z,16.60
2023-09-17T21:32:04.009Z,16.58
2023-09-17T21:34:30.904Z,16.60
2023-09-17T21:36:57.690Z,16.60
2023-09-17T21:39:31.640Z,16.54
2023-09-17T21:41:58.798Z,16.52
2023-09-17T21:44:25.539Z,16.55
2023-09-17T21:46:55.621Z,16.51
2023-09-17T21:49:22.819Z,16.45
2023-09-17T21:51:49.560Z,16.38
2023-09-17T21:54:16.317Z,16.35
2023-09-17T21:56:43.553Z,16.29
2023-09-17T21:59:10.525Z,16.20
2023-09-17T22:01:37.417Z,16.18
2023-09-17T22:04:04.538Z,16.20
2023-09-17T22:06:31.403Z,16.14
2023-09-17T22:08:58.358Z,16.12
2023-09-17T22:11:25.130Z,16.11
2023-09-17T22:13:52.504Z,16.07
2023-09-17T22:16:19.864Z,16.06
2023-09-17T22:18:46.667Z,16.05
2023-09-17T22:21:13.381Z,16.02
2023-09-17T22:23:40.180Z,15.97
2023-09-17T22:26:08.383Z,15.95
2023-09-17T22:28:35.382Z,15.89
2023-09-17T22:31:12.753Z,15.86
2023-09-17T22:33:41.623Z,15.85
2023-09-17T22:36:09.859Z,15.85
2023-09-17T22:38:42.773Z,15.84
2023-09-17T22:41:19.876Z,15.82
2023-09-17T22:43:48.254Z,15.80
2023-09-17T22:46:19.677Z,15.77
2023-09-17T22:48:54.978Z,15.77
2023-09-17T22:51:23.224Z,15.71
2023-09-17T22:53:53.613Z,15.72
2023-09-17T22:56:20.331Z,15.65
2023-09-17T22:58:47.291Z,15.61
2023-09-17T23:01:17.956Z,15.58
2023-09-17T23:03:45.492Z,15.59
2023-09-17T23:06:13.083Z,15.59
2023-09-17T23:08:40.360Z,15.55
2023-09-17T23:11:08.167Z,15.54
2023-09-17T23:13:36.526Z,15.52
2023-09-17T23:16:05.749Z,15.51
2023-09-17T23:18:33.057Z,15.51
2023-09-17T23:21:00.429Z,15.52
2023-09-17T23:23:27.176Z,15.49
2023-09-17T23:25:55.218Z,15.42
2023-09-17T23:28:23.800Z,15.37
2023-09-17T23:30:51.620Z,15.34
2023-09-17T23:33:19.293Z,15.28
2023-09-17T23:35:47.861Z,15.31
2023-09-17T23:38:14.452Z,15.28
2023-09-17T23:40:41.045Z,15.27
2023-09-17T23:43:12.383Z,15.25
2023-09-17T23:45:39.842Z,15.23
2023-09-17T23:48:07.265Z,15.22
2023-09-17T23:50:34.103Z,15.21
2023-09-17T23:53:03.987Z,15.21
2023-09-17T23:55:31.256Z,15.16
2023-09-17T23:57:58.339Z,15.14
